sensor_id;sensor_type;location;lat;lon;timestamp;P1;durP1;ratioP1;P2;durP2;ratioP2
74074;SDS011;62428;51.412;5.432;2022-10-01T00:00:17;7.85;;;4.90;;
74074;SDS011;62428;51.412;5.432;2022-10-01T00:02:44;7.85;;;3.50;;
74074;SDS011;62428;51.412;5.432;2022-10-01T00:05:10;6.53;;;3.67;;
74074;SDS011;62428;51.412;5.432;2022-10-01T00:07:36;7.80;;;4.30;;
74074;SDS011;62428;51.412;5.432;2022-10-01T00:10:06;9.05;;;4.28;;
74074;SDS011;62428;51.412;5.432;2022-10-01T00:12:32;7.32;;;4.03;;
74074;SDS011;62428;51.412;5.432;2022-10-01T00:14:58;7.32;;;3.97;;
74074;SDS011;62428;51.412;5.432;2022-10-01T00:17:24;7.80;;;3.63;;
74074;SDS011;62428;51.412;5.432;2022-10-01T00:19:50;6.57;;;3.70;;
74074;SDS011;62428;51.412;5.432;2022-10-01T00:22:15;9.40;;;3.83;;
74074;SDS011;62428;51.412;5.432;2022-10-01T00:24:43;11.97;;;4.00;;
74074;SDS011;62428;51.412;5.432;2022-10-01T00:27:09;8.38;;;3.72;;
74074;SDS011;62428;51.412;5.432;2022-10-01T00:29:36;7.40;;;4.47;;
74074;SDS011;62428;51.412;5.432;2022-10-01T00:32:02;7.33;;;3.30;;
74074;SDS011;62428;51.412;5.432;2022-10-01T00:34:27;4.45;;;2.83;;
74074;SDS011;62428;51.412;5.432;2022-10-01T00:36:52;5.22;;;3.38;;
74074;SDS011;62428;51.412;5.432;2022-10-01T00:39:18;9.23;;;3.73;;
74074;SDS011;62428;51.412;5.432;2022-10-01T00:41:44;6.22;;;4.20;;
74074;SDS011;62428;51.412;5.432;2022-10-01T00:44:29;7.77;;;3.37;;
74074;SDS011;62428;51.412;5.432;2022-10-01T00:46:59;6.40;;;3.20;;
74074;SDS011;62428;51.412;5.432;2022-10-01T00:49:30;6.18;;;4.45;;
74074;SDS011;62428;51.412;5.432;2022-10-01T00:52:01;5.72;;;3.63;;
74074;SDS011;62428;51.412;5.432;2022-10-01T00:57:10;5.47;;;3.40;;
74074;SDS011;62428;51.412;5.432;2022-10-01T00:59:39;5.63;;;3.72;;
74074;SDS011;62428;51.412;5.432;2022-10-01T01:02:05;6.27;;;3.77;;
74074;SDS011;62428;51.412;5.432;2022-10-01T01:04:30;7.90;;;3.63;;
74074;SDS011;62428;51.412;5.432;2022-10-01T01:06:56;5.77;;;3.33;;
74074;SDS011;62428;51.412;5.432;2022-10-01T01:09:28;6.72;;;3.78;;
74074;SDS011;62428;51.412;5.432;2022-10-01T01:17:33;6.45;;;3.53;;
74074;SDS011;62428;51.412;5.432;2022-10-01T01:20:10;6.47;;;3.47;;
74074;SDS011;62428;51.412;5.432;2022-10-01T01:22:42;12.82;;;3.63;;
74074;SDS011;62428;51.412;5.432;2022-10-01T01:25:18;14.33;;;3.87;;
74074;SDS011;62428;51.412;5.432;2022-10-01T01:30:26;6.05;;;3.88;;
74074;SDS011;62428;51.412;5.432;2022-10-01T01:32:56;4.82;;;3.33;;
74074;SDS011;62428;51.412;5.432;2022-10-01T01:35:34;5.40;;;3.47;;
74074;SDS011;62428;51.412;5.432;2022-10-01T01:38:06;6.07;;;3.00;;
74074;SDS011;62428;51.412;5.432;2022-10-01T01:40:36;5.80;;;2.97;;
74074;SDS011;62428;51.412;5.432;2022-10-01T01:43:09;4.40;;;2.90;;
74074;SDS011;62428;51.412;5.432;2022-10-01T01:45:37;6.82;;;3.08;;
74074;SDS011;62428;51.412;5.432;2022-10-01T01:48:04;4.45;;;2.75;;
74074;SDS011;62428;51.412;5.432;2022-10-01T01:50:32;4.70;;;2.87;;
74074;SDS011;62428;51.412;5.432;2022-10-01T01:53:05;6.75;;;2.35;;
74074;SDS011;62428;51.412;5.432;2022-10-01T01:55:31;3.00;;;2.13;;
74074;SDS011;62428;51.412;5.432;2022-10-01T01:58:00;5.38;;;2.17;;
74074;SDS011;62428;51.412;5.432;2022-10-01T02:00:27;4.97;;;2.30;;
74074;SDS011;62428;51.412;5.432;2022-10-01T02:02:52;6.03;;;2.30;;
74074;SDS011;62428;51.412;5.432;2022-10-01T02:05:22;3.28;;;2.20;;
74074;SDS011;62428;51.412;5.432;2022-10-01T02:10:33;3.45;;;1.77;;
74074;SDS011;62428;51.412;5.432;2022-10-01T02:16:02;4.65;;;1.75;;
74074;SDS011;62428;51.412;5.432;2022-10-01T02:18:33;2.67;;;1.90;;
74074;SDS011;62428;51.412;5.432;2022-10-01T02:21:03;2.65;;;1.58;;
74074;SDS011;62428;51.412;5.432;2022-10-01T02:23:38;3.78;;;1.73;;
74074;SDS011;62428;51.412;5.432;2022-10-01T02:26:09;2.97;;;1.60;;
74074;SDS011;62428;51.412;5.432;2022-10-01T02:28:39;3.95;;;1.35;;
74074;SDS011;62428;51.412;5.432;2022-10-01T02:31:06;2.95;;;1.13;;
74074;SDS011;62428;51.412;5.432;2022-10-01T02:33:34;2.30;;;1.05;;
74074;SDS011;62428;51.412;5.432;2022-10-01T02:36:00;3.03;;;1.27;;
74074;SDS011;62428;51.412;5.432;2022-10-01T02:38:30;5.28;;;1.40;;
74074;SDS011;62428;51.412;5.432;2022-10-01T02:40:57;2.65;;;1.30;;
74074;SDS011;62428;51.412;5.432;2022-10-01T02:43:29;3.13;;;1.10;;
74074;SDS011;62428;51.412;5.432;2022-10-01T02:46:01;4.90;;;1.20;;
74074;SDS011;62428;51.412;5.432;2022-10-01T02:48:32;4.50;;;1.20;;
74074;SDS011;62428;51.412;5.432;2022-10-01T02:53:50;1.80;;;1.08;;
74074;SDS011;62428;51.412;5.432;2022-10-01T02:56:20;2.40;;;1.05;;
74074;SDS011;62428;51.412;5.432;2022-10-01T02:59:06;4.70;;;1.25;;
74074;SDS011;62428;51.412;5.432;2022-10-01T03:01:32;1.60;;;0.70;;
74074;SDS011;62428;51.412;5.432;2022-10-01T03:03:58;3.80;;;1.20;;
74074;SDS011;62428;51.412;5.432;2022-10-01T03:06:24;1.67;;;0.98;;
74074;SDS011;62428;51.412;5.432;2022-10-01T03:08:49;1.23;;;0.70;;
74074;SDS011;62428;51.412;5.432;2022-10-01T03:11:14;3.03;;;0.97;;
74074;SDS011;62428;51.412;5.432;2022-10-01T03:13:40;1.97;;;0.87;;
74074;SDS011;62428;51.412;5.432;2022-10-01T03:16:07;1.60;;;0.90;;
74074;SDS011;62428;51.412;5.432;2022-10-01T03:18:32;1.10;;;0.70;;
74074;SDS011;62428;51.412;5.432;2022-10-01T03:20:58;1.20;;;0.70;;
74074;SDS011;62428;51.412;5.432;2022-10-01T03:23:23;3.47;;;0.70;;
74074;SDS011;62428;51.412;5.432;2022-10-01T03:25:48;1.40;;;0.98;;
74074;SDS011;62428;51.412;5.432;2022-10-01T03:28:13;1.90;;;0.63;;
74074;SDS011;62428;51.412;5.432;2022-10-01T03:30:39;1.40;;;0.70;;
74074;SDS011;62428;51.412;5.432;2022-10-01T03:33:04;1.20;;;0.60;;
74074;SDS011;62428;51.412;5.432;2022-10-01T03:35:29;2.13;;;0.50;;
74074;SDS011;62428;51.412;5.432;2022-10-01T03:37:56;1.85;;;0.60;;
74074;SDS011;62428;51.412;5.432;2022-10-01T03:40:21;2.67;;;0.60;;
74074;SDS011;62428;51.412;5.432;2022-10-01T03:42:46;2.10;;;0.47;;
74074;SDS011;62428;51.412;5.432;2022-10-01T03:45:12;1.23;;;0.53;;
74074;SDS011;62428;51.412;5.432;2022-10-01T03:47:37;0.73;;;0.40;;
74074;SDS011;62428;51.412;5.432;2022-10-01T03:50:03;4.00;;;0.50;;
74074;SDS011;62428;51.412;5.432;2022-10-01T03:52:29;0.43;;;0.30;;
74074;SDS011;62428;51.412;5.432;2022-10-01T03:54:54;0.70;;;0.30;;
74074;SDS011;62428;51.412;5.432;2022-10-01T03:57:19;3.90;;;0.40;;
74074;SDS011;62428;51.412;5.432;2022-10-01T03:59:45;0.60;;;0.30;;
74074;SDS011;62428;51.412;5.432;2022-10-01T04:02:10;0.57;;;0.30;;
74074;SDS011;62428;51.412;5.432;2022-10-01T04:04:35;1.20;;;0.40;;
74074;SDS011;62428;51.412;5.432;2022-10-01T04:07:01;1.70;;;0.38;;
74074;SDS011;62428;51.412;5.432;2022-10-01T04:09:26;0.38;;;0.20;;
74074;SDS011;62428;51.412;5.432;2022-10-01T04:11:51;0.40;;;0.30;;
74074;SDS011;62428;51.412;5.432;2022-10-01T04:14:17;1.33;;;0.43;;
74074;SDS011;62428;51.412;5.432;2022-10-01T04:16:42;0.77;;;0.30;;
74074;SDS011;62428;51.412;5.432;2022-10-01T04:19:08;1.48;;;0.32;;
74074;SDS011;62428;51.412;5.432;2022-10-01T04:21:33;2.97;;;0.30;;
74074;SDS011;62428;51.412;5.432;2022-10-01T04:24:00;0.75;;;0.20;;
74074;SDS011;62428;51.412;5.432;2022-10-01T04:26:27;0.47;;;0.20;;
74074;SDS011;62428;51.412;5.432;2022-10-01T04:28:52;0.60;;;0.30;;
74074;SDS011;62428;51.412;5.432;2022-10-01T04:31:17;0.63;;;0.20;;
74074;SDS011;62428;51.412;5.432;2022-10-01T04:33:49;1.33;;;0.22;;
74074;SDS011;62428;51.412;5.432;2022-10-01T04:36:14;0.40;;;0.28;;
74074;SDS011;62428;51.412;5.432;2022-10-01T04:38:39;0.80;;;0.30;;
74074;SDS011;62428;51.412;5.432;2022-10-01T04:41:05;0.33;;;0.20;;
74074;SDS011;62428;51.412;5.432;2022-10-01T04:43:31;0.93;;;0.30;;
74074;SDS011;62428;51.412;5.432;2022-10-01T04:45:56;1.37;;;0.30;;
74074;SDS011;62428;51.412;5.432;2022-10-01T04:48:22;0.63;;;0.30;;
74074;SDS011;62428;51.412;5.432;2022-10-01T04:50:48;0.77;;;0.30;;
74074;SDS011;62428;51.412;5.432;2022-10-01T04:53:13;0.50;;;0.30;;
74074;SDS011;62428;51.412;5.432;2022-10-01T04:55:39;0.95;;;0.35;;
74074;SDS011;62428;51.412;5.432;2022-10-01T04:58:04;0.98;;;0.50;;
74074;SDS011;62428;51.412;5.432;2022-10-01T05:00:29;1.63;;;0.30;;
74074;SDS011;62428;51.412;5.432;2022-10-01T05:02:55;1.77;;;0.40;;
74074;SDS011;62428;51.412;5.432;2022-10-01T05:05:22;0.53;;;0.30;;
74074;SDS011;62428;51.412;5.432;2022-10-01T05:07:48;3.20;;;0.40;;
74074;SDS011;62428;51.412;5.432;2022-10-01T05:10:14;0.73;;;0.30;;
74074;SDS011;62428;51.412;5.432;2022-10-01T05:12:42;1.23;;;0.50;;
74074;SDS011;62428;51.412;5.432;2022-10-01T05:15:08;0.52;;;0.32;;
74074;SDS011;62428;51.412;5.432;2022-10-01T05:17:34;1.08;;;0.47;;
74074;SDS011;62428;51.412;5.432;2022-10-01T05:20:00;2.90;;;0.60;;
74074;SDS011;62428;51.412;5.432;2022-10-01T05:22:26;1.90;;;0.55;;
74074;SDS011;62428;51.412;5.432;2022-10-01T05:24:52;0.90;;;0.50;;
74074;SDS011;62428;51.412;5.432;2022-10-01T05:27:17;2.50;;;0.60;;
74074;SDS011;62428;51.412;5.432;2022-10-01T05:29:43;3.20;;;0.70;;
74074;SDS011;62428;51.412;5.432;2022-10-01T05:32:09;2.78;;;0.82;;
74074;SDS011;62428;51.412;5.432;2022-10-01T05:34:36;2.30;;;0.70;;
74074;SDS011;62428;51.412;5.432;2022-10-01T05:37:02;3.25;;;0.80;;
74074;SDS011;62428;51.412;5.432;2022-10-01T05:39:29;2.53;;;0.70;;
74074;SDS011;62428;51.412;5.432;2022-10-01T05:41:55;3.47;;;0.75;;
74074;SDS011;62428;51.412;5.432;2022-10-01T05:44:21;2.60;;;0.80;;
74074;SDS011;62428;51.412;5.432;2022-10-01T05:46:47;2.63;;;1.05;;
74074;SDS011;62428;51.412;5.432;2022-10-01T05:49:12;2.65;;;1.00;;
74074;SDS011;62428;51.412;5.432;2022-10-01T05:51:39;4.80;;;1.00;;
74074;SDS011;62428;51.412;5.432;2022-10-01T05:54:04;2.55;;;0.85;;
74074;SDS011;62428;51.412;5.432;2022-10-01T05:56:29;1.65;;;1.10;;
74074;SDS011;62428;51.412;5.432;2022-10-01T05:58:55;2.80;;;1.03;;
74074;SDS011;62428;51.412;5.432;2022-10-01T06:01:20;3.10;;;1.17;;
74074;SDS011;62428;51.412;5.432;2022-10-01T06:03:49;3.10;;;1.40;;
74074;SDS011;62428;51.412;5.432;2022-10-01T06:06:14;2.65;;;1.30;;
74074;SDS011;62428;51.412;5.432;2022-10-01T06:08:45;4.57;;;1.50;;
74074;SDS011;62428;51.412;5.432;2022-10-01T06:11:10;5.63;;;1.40;;
74074;SDS011;62428;51.412;5.432;2022-10-01T06:13:36;2.83;;;1.50;;
74074;SDS011;62428;51.412;5.432;2022-10-01T06:16:01;3.00;;;1.50;;
74074;SDS011;62428;51.412;5.432;2022-10-01T06:18:26;8.10;;;1.37;;
74074;SDS011;62428;51.412;5.432;2022-10-01T06:20:52;4.53;;;1.70;;
74074;SDS011;62428;51.412;5.432;2022-10-01T06:23:17;2.70;;;1.90;;
74074;SDS011;62428;51.412;5.432;2022-10-01T06:25:42;2.77;;;1.63;;
74074;SDS011;62428;51.412;5.432;2022-10-01T06:28:09;3.58;;;2.10;;
74074;SDS011;62428;51.412;5.432;2022-10-01T06:30:36;3.67;;;1.95;;
74074;SDS011;62428;51.412;5.432;2022-10-01T06:33:04;4.75;;;2.17;;
74074;SDS011;62428;51.412;5.432;2022-10-01T06:35:35;5.93;;;1.85;;
74074;SDS011;62428;51.412;5.432;2022-10-01T06:38:06;3.40;;;1.92;;
74074;SDS011;62428;51.412;5.432;2022-10-01T06:40:32;3.78;;;2.08;;
74074;SDS011;62428;51.412;5.432;2022-10-01T06:42:57;5.07;;;2.00;;
74074;SDS011;62428;51.412;5.432;2022-10-01T06:45:26;3.45;;;1.95;;
74074;SDS011;62428;51.412;5.432;2022-10-01T06:47:53;4.40;;;2.07;;
74074;SDS011;62428;51.412;5.432;2022-10-01T06:50:20;5.55;;;2.28;;
74074;SDS011;62428;51.412;5.432;2022-10-01T06:52:45;4.87;;;2.17;;
74074;SDS011;62428;51.412;5.432;2022-10-01T06:55:20;4.28;;;2.40;;
74074;SDS011;62428;51.412;5.432;2022-10-01T06:57:52;3.53;;;2.55;;
74074;SDS011;62428;51.412;5.432;2022-10-01T07:00:19;4.15;;;2.30;;
74074;SDS011;62428;51.412;5.432;2022-10-01T07:02:44;5.03;;;2.70;;
74074;SDS011;62428;51.412;5.432;2022-10-01T07:05:09;5.90;;;2.80;;
74074;SDS011;62428;51.412;5.432;2022-10-01T07:07:36;5.43;;;2.63;;
74074;SDS011;62428;51.412;5.432;2022-10-01T07:10:06;4.28;;;3.15;;
74074;SDS011;62428;51.412;5.432;2022-10-01T07:12:33;8.30;;;2.90;;
74074;SDS011;62428;51.412;5.432;2022-10-01T07:14:59;9.05;;;2.90;;
74074;SDS011;62428;51.412;5.432;2022-10-01T07:17:25;9.55;;;3.30;;
74074;SDS011;62428;51.412;5.432;2022-10-01T07:19:50;6.57;;;3.25;;
74074;SDS011;62428;51.412;5.432;2022-10-01T07:22:15;5.70;;;3.40;;
74074;SDS011;62428;51.412;5.432;2022-10-01T07:24:43;6.60;;;3.50;;
74074;SDS011;62428;51.412;5.432;2022-10-01T07:27:09;7.80;;;3.50;;
74074;SDS011;62428;51.412;5.432;2022-10-01T07:29:34;7.65;;;3.72;;
74074;SDS011;62428;51.412;5.432;2022-10-01T07:32:00;7.82;;;3.90;;
74074;SDS011;62428;51.412;5.432;2022-10-01T07:34:26;11.73;;;4.10;;
74074;SDS011;62428;51.412;5.432;2022-10-01T07:36:53;8.68;;;4.10;;
74074;SDS011;62428;51.412;5.432;2022-10-01T07:39:20;6.80;;;3.70;;
74074;SDS011;62428;51.412;5.432;2022-10-01T07:41:45;6.93;;;3.88;;
74074;SDS011;62428;51.412;5.432;2022-10-01T07:44:11;11.47;;;4.20;;
74074;SDS011;62428;51.412;5.432;2022-10-01T07:46:37;5.63;;;4.03;;
74074;SDS011;62428;51.412;5.432;2022-10-01T07:49:03;7.07;;;4.03;;
74074;SDS011;62428;51.412;5.432;2022-10-01T07:51:28;8.25;;;4.40;;
74074;SDS011;62428;51.412;5.432;2022-10-01T07:53:54;10.57;;;4.70;;
74074;SDS011;62428;51.412;5.432;2022-10-01T07:56:20;7.90;;;4.60;;
74074;SDS011;62428;51.412;5.432;2022-10-01T07:58:45;10.50;;;4.63;;
74074;SDS011;62428;51.412;5.432;2022-10-01T08:01:11;6.85;;;4.53;;
74074;SDS011;62428;51.412;5.432;2022-10-01T08:03:36;12.23;;;5.00;;
74074;SDS011;62428;51.412;5.432;2022-10-01T08:06:01;11.30;;;4.87;;
74074;SDS011;62428;51.412;5.432;2022-10-01T08:08:29;10.43;;;4.68;;
74074;SDS011;62428;51.412;5.432;2022-10-01T08:10:55;8.98;;;4.38;;
74074;SDS011;62428;51.412;5.432;2022-10-01T08:13:20;7.27;;;4.37;;
74074;SDS011;62428;51.412;5.432;2022-10-01T08:15:49;8.48;;;4.07;;
74074;SDS011;62428;51.412;5.432;2022-10-01T08:18:17;8.43;;;4.10;;
74074;SDS011;62428;51.412;5.432;2022-10-01T08:20:43;7.15;;;3.30;;
74074;SDS011;62428;51.412;5.432;2022-10-01T08:23:13;7.05;;;3.17;;
74074;SDS011;62428;51.412;5.432;2022-10-01T08:25:40;10.02;;;2.90;;
74074;SDS011;62428;51.412;5.432;2022-10-01T08:28:07;7.25;;;3.05;;
74074;SDS011;62428;51.412;5.432;2022-10-01T08:30:35;5.60;;;2.67;;
74074;SDS011;62428;51.412;5.432;2022-10-01T08:33:03;3.15;;;1.73;;
74074;SDS011;62428;51.412;5.432;2022-10-01T08:35:29;5.67;;;1.83;;
74074;SDS011;62428;51.412;5.432;2022-10-01T08:37:59;4.10;;;1.85;;
74074;SDS011;62428;51.412;5.432;2022-10-01T08:40:28;3.47;;;1.67;;
74074;SDS011;62428;51.412;5.432;2022-10-01T08:43:10;6.00;;;1.63;;
74074;SDS011;62428;51.412;5.432;2022-10-01T08:45:47;5.68;;;2.20;;
74074;SDS011;62428;51.412;5.432;2022-10-01T08:48:30;5.72;;;1.90;;
74074;SDS011;62428;51.412;5.432;2022-10-01T08:51:15;9.32;;;2.55;;
74074;SDS011;62428;51.412;5.432;2022-10-01T08:54:09;5.90;;;2.92;;
74074;SDS011;62428;51.412;5.432;2022-10-01T08:56:46;5.47;;;2.13;;
74074;SDS011;62428;51.412;5.432;2022-10-01T09:02:08;10.38;;;2.13;;
74074;SDS011;62428;51.412;5.432;2022-10-01T09:04:47;6.82;;;2.63;;
74074;SDS011;62428;51.412;5.432;2022-10-01T09:07:21;7.45;;;2.60;;
74074;SDS011;62428;51.412;5.432;2022-10-01T09:10:08;9.90;;;2.97;;
74074;SDS011;62428;51.412;5.432;2022-10-01T09:20:57;16.27;;;4.60;;
74074;SDS011;62428;51.412;5.432;2022-10-01T09:23:27;17.83;;;4.97;;
74074;SDS011;62428;51.412;5.432;2022-10-01T09:25:54;15.55;;;4.45;;
74074;SDS011;62428;51.412;5.432;2022-10-01T09:28:23;12.93;;;4.55;;
74074;SDS011;62428;51.412;5.432;2022-10-01T09:30:53;11.88;;;4.97;;
74074;SDS011;62428;51.412;5.432;2022-10-01T09:33:45;12.18;;;4.72;;
74074;SDS011;62428;51.412;5.432;2022-10-01T09:39:00;20.00;;;4.28;;
74074;SDS011;62428;51.412;5.432;2022-10-01T09:41:38;11.50;;;3.70;;
74074;SDS011;62428;51.412;5.432;2022-10-01T09:44:03;14.80;;;3.17;;
74074;SDS011;62428;51.412;5.432;2022-10-01T09:46:29;19.50;;;3.83;;
74074;SDS011;62428;51.412;5.432;2022-10-01T09:49:00;16.37;;;3.53;;
74074;SDS011;62428;51.412;5.432;2022-10-01T09:51:31;13.60;;;3.35;;
74074;SDS011;62428;51.412;5.432;2022-10-01T09:56:50;10.95;;;3.65;;
74074;SDS011;62428;51.412;5.432;2022-10-01T10:02:11;12.37;;;2.40;;
74074;SDS011;62428;51.412;5.432;2022-10-01T10:04:41;9.57;;;1.88;;
74074;SDS011;62428;51.412;5.432;2022-10-01T10:07:06;10.17;;;1.83;;
74074;SDS011;62428;51.412;5.432;2022-10-01T10:09:32;13.43;;;2.03;;
74074;SDS011;62428;51.412;5.432;2022-10-01T10:12:00;18.07;;;1.97;;
74074;SDS011;62428;51.412;5.432;2022-10-01T10:14:36;16.77;;;2.20;;
74074;SDS011;62428;51.412;5.432;2022-10-01T10:17:12;16.77;;;2.50;;
74074;SDS011;62428;51.412;5.432;2022-10-01T10:19:44;13.70;;;2.55;;
74074;SDS011;62428;51.412;5.432;2022-10-01T10:22:18;19.25;;;2.78;;
74074;SDS011;62428;51.412;5.432;2022-10-01T10:24:49;12.30;;;1.60;;
74074;SDS011;62428;51.412;5.432;2022-10-01T10:27:23;11.63;;;1.13;;
74074;SDS011;62428;51.412;5.432;2022-10-01T10:29:59;15.02;;;1.25;;
74074;SDS011;62428;51.412;5.432;2022-10-01T10:32:29;17.52;;;1.88;;
74074;SDS011;62428;51.412;5.432;2022-10-01T10:34:56;12.67;;;1.57;;
74074;SDS011;62428;51.412;5.432;2022-10-01T10:37:30;15.48;;;1.52;;
74074;SDS011;62428;51.412;5.432;2022-10-01T10:39:58;11.80;;;1.33;;
74074;SDS011;62428;51.412;5.432;2022-10-01T10:42:24;11.03;;;1.07;;
74074;SDS011;62428;51.412;5.432;2022-10-01T10:44:50;14.52;;;1.48;;
74074;SDS011;62428;51.412;5.432;2022-10-01T10:47:19;20.77;;;2.05;;
74074;SDS011;62428;51.412;5.432;2022-10-01T10:49:47;10.88;;;1.55;;
74074;SDS011;62428;51.412;5.432;2022-10-01T10:52:20;16.20;;;1.83;;
74074;SDS011;62428;51.412;5.432;2022-10-01T10:54:54;13.52;;;1.92;;
74074;SDS011;62428;51.412;5.432;2022-10-01T10:59:57;15.32;;;1.95;;
74074;SDS011;62428;51.412;5.432;2022-10-01T11:02:38;13.30;;;1.70;;
74074;SDS011;62428;51.412;5.432;2022-10-01T11:05:15;13.17;;;1.40;;
74074;SDS011;62428;51.412;5.432;2022-10-01T11:07:43;7.03;;;1.23;;
74074;SDS011;62428;51.412;5.432;2022-10-01T11:10:14;13.82;;;1.25;;
74074;SDS011;62428;51.412;5.432;2022-10-01T11:15:35;14.98;;;1.50;;
74074;SDS011;62428;51.412;5.432;2022-10-01T11:18:13;13.63;;;1.60;;
74074;SDS011;62428;51.412;5.432;2022-10-01T11:32:26;13.77;;;1.70;;
74074;SDS011;62428;51.412;5.432;2022-10-01T11:43:41;9.23;;;1.13;;
74074;SDS011;62428;51.412;5.432;2022-10-01T11:46:54;12.73;;;1.40;;
74074;SDS011;62428;51.412;5.432;2022-10-01T11:52:01;11.23;;;1.33;;
74074;SDS011;62428;51.412;5.432;2022-10-01T11:54:32;12.38;;;1.50;;
74074;SDS011;62428;51.412;5.432;2022-10-01T11:57:00;11.77;;;1.20;;
74074;SDS011;62428;51.412;5.432;2022-10-01T11:59:49;13.67;;;1.57;;
74074;SDS011;62428;51.412;5.432;2022-10-01T12:02:24;8.27;;;1.00;;
74074;SDS011;62428;51.412;5.432;2022-10-01T12:07:50;16.40;;;1.80;;
74074;SDS011;62428;51.412;5.432;2022-10-01T12:13:17;10.17;;;1.03;;
74074;SDS011;62428;51.412;5.432;2022-10-01T12:15:48;9.23;;;1.25;;
74074;SDS011;62428;51.412;5.432;2022-10-01T12:20:53;13.93;;;1.42;;
74074;SDS011;62428;51.412;5.432;2022-10-01T12:23:26;8.10;;;1.10;;
74074;SDS011;62428;51.412;5.432;2022-10-01T12:26:00;8.37;;;1.03;;
74074;SDS011;62428;51.412;5.432;2022-10-01T12:28:38;11.63;;;1.48;;
74074;SDS011;62428;51.412;5.432;2022-10-01T12:31:21;10.88;;;1.50;;
74074;SDS011;62428;51.412;5.432;2022-10-01T12:34:19;13.32;;;1.75;;
74074;SDS011;62428;51.412;5.432;2022-10-01T12:37:00;13.98;;;1.70;;
74074;SDS011;62428;51.412;5.432;2022-10-01T12:50:20;13.32;;;1.30;;
74074;SDS011;62428;51.412;5.432;2022-10-01T13:02:00;13.75;;;1.52;;
74074;SDS011;62428;51.412;5.432;2022-10-01T13:12:38;11.20;;;1.23;;
74074;SDS011;62428;51.412;5.432;2022-10-01T13:18:04;12.95;;;1.40;;
74074;SDS011;62428;51.412;5.432;2022-10-01T13:26:22;11.75;;;1.40;;
74074;SDS011;62428;51.412;5.432;2022-10-01T13:31:32;8.10;;;0.77;;
74074;SDS011;62428;51.412;5.432;2022-10-01T13:37:08;13.93;;;0.93;;
74074;SDS011;62428;51.412;5.432;2022-10-01T13:39:38;6.70;;;0.90;;
74074;SDS011;62428;51.412;5.432;2022-10-01T13:42:08;6.15;;;0.90;;
74074;SDS011;62428;51.412;5.432;2022-10-01T13:44:40;12.25;;;0.88;;
74074;SDS011;62428;51.412;5.432;2022-10-01T13:47:06;10.10;;;1.17;;
74074;SDS011;62428;51.412;5.432;2022-10-01T13:49:33;10.30;;;0.80;;
74074;SDS011;62428;51.412;5.432;2022-10-01T13:52:01;14.82;;;1.52;;
74074;SDS011;62428;51.412;5.432;2022-10-01T13:57:21;7.40;;;1.10;;
74074;SDS011;62428;51.412;5.432;2022-10-01T13:59:59;7.18;;;0.80;;
74074;SDS011;62428;51.412;5.432;2022-10-01T14:02:35;11.77;;;1.10;;
74074;SDS011;62428;51.412;5.432;2022-10-01T14:05:20;11.68;;;1.55;;
74074;SDS011;62428;51.412;5.432;2022-10-01T14:07:55;8.20;;;0.90;;
74074;SDS011;62428;51.412;5.432;2022-10-01T14:10:33;10.38;;;0.90;;
74074;SDS011;62428;51.412;5.432;2022-10-01T14:13:24;13.00;;;1.83;;
74074;SDS011;62428;51.412;5.432;2022-10-01T14:16:11;10.25;;;1.02;;
74074;SDS011;62428;51.412;5.432;2022-10-01T14:18:38;8.30;;;1.00;;
74074;SDS011;62428;51.412;5.432;2022-10-01T14:29:21;7.95;;;0.90;;
74074;SDS011;62428;51.412;5.432;2022-10-01T14:32:08;11.65;;;1.13;;
74074;SDS011;62428;51.412;5.432;2022-10-01T14:34:42;8.27;;;0.90;;
74074;SDS011;62428;51.412;5.432;2022-10-01T14:37:19;10.23;;;1.30;;
74074;SDS011;62428;51.412;5.432;2022-10-01T14:39:45;9.25;;;1.10;;
74074;SDS011;62428;51.412;5.432;2022-10-01T14:42:16;7.97;;;1.03;;
74074;SDS011;62428;51.412;5.432;2022-10-01T14:44:43;8.70;;;1.40;;
74074;SDS011;62428;51.412;5.432;2022-10-01T14:47:15;10.57;;;1.15;;
74074;SDS011;62428;51.412;5.432;2022-10-01T14:49:41;10.60;;;1.35;;
74074;SDS011;62428;51.412;5.432;2022-10-01T14:52:12;10.47;;;1.47;;
74074;SDS011;62428;51.412;5.432;2022-10-01T14:54:50;13.95;;;1.23;;
74074;SDS011;62428;51.412;5.432;2022-10-01T14:59:56;11.93;;;1.52;;
74074;SDS011;62428;51.412;5.432;2022-10-01T15:02:25;15.60;;;1.42;;
74074;SDS011;62428;51.412;5.432;2022-10-01T15:04:53;15.93;;;1.48;;
74074;SDS011;62428;51.412;5.432;2022-10-01T15:07:21;13.23;;;1.63;;
74074;SDS011;62428;51.412;5.432;2022-10-01T15:09:48;16.63;;;1.13;;
74074;SDS011;62428;51.412;5.432;2022-10-01T15:12:15;10.13;;;1.17;;
74074;SDS011;62428;51.412;5.432;2022-10-01T15:14:43;12.77;;;1.08;;
74074;SDS011;62428;51.412;5.432;2022-10-01T15:17:21;10.02;;;1.40;;
74074;SDS011;62428;51.412;5.432;2022-10-01T15:19:49;13.73;;;1.23;;
74074;SDS011;62428;51.412;5.432;2022-10-01T15:22:18;8.23;;;0.83;;
74074;SDS011;62428;51.412;5.432;2022-10-01T15:24:47;8.55;;;1.20;;
74074;SDS011;62428;51.412;5.432;2022-10-01T15:27:16;7.45;;;1.40;;
74074;SDS011;62428;51.412;5.432;2022-10-01T15:29:44;9.70;;;1.10;;
74074;SDS011;62428;51.412;5.432;2022-10-01T15:32:15;12.02;;;1.40;;
74074;SDS011;62428;51.412;5.432;2022-10-01T15:34:43;8.83;;;0.90;;
74074;SDS011;62428;51.412;5.432;2022-10-01T15:37:18;10.73;;;1.10;;
74074;SDS011;62428;51.412;5.432;2022-10-01T15:39:47;7.78;;;0.98;;
74074;SDS011;62428;51.412;5.432;2022-10-01T15:42:20;9.60;;;1.08;;
74074;SDS011;62428;51.412;5.432;2022-10-01T15:44:50;8.32;;;0.90;;
74074;SDS011;62428;51.412;5.432;2022-10-01T15:47:34;10.73;;;1.07;;
74074;SDS011;62428;51.412;5.432;2022-10-01T15:52:50;10.38;;;1.17;;
74074;SDS011;62428;51.412;5.432;2022-10-01T16:00:32;10.47;;;1.07;;
74074;SDS011;62428;51.412;5.432;2022-10-01T16:03:12;10.55;;;1.10;;
74074;SDS011;62428;51.412;5.432;2022-10-01T16:05:44;11.52;;;1.25;;
74074;SDS011;62428;51.412;5.432;2022-10-01T16:08:16;11.27;;;1.20;;
74074;SDS011;62428;51.412;5.432;2022-10-01T16:10:46;14.40;;;1.20;;
74074;SDS011;62428;51.412;5.432;2022-10-01T16:13:25;13.37;;;1.30;;
74074;SDS011;62428;51.412;5.432;2022-10-01T16:16:05;14.20;;;1.30;;
74074;SDS011;62428;51.412;5.432;2022-10-01T16:18:32;13.55;;;1.38;;
74074;SDS011;62428;51.412;5.432;2022-10-01T16:20:59;10.05;;;1.38;;
74074;SDS011;62428;51.412;5.432;2022-10-01T16:26:05;15.30;;;1.38;;
74074;SDS011;62428;51.412;5.432;2022-10-01T16:29:00;12.90;;;0.90;;
74074;SDS011;62428;51.412;5.432;2022-10-01T16:31:29;19.55;;;1.55;;
74074;SDS011;62428;51.412;5.432;2022-10-01T16:33:55;11.17;;;1.00;;
74074;SDS011;62428;51.412;5.432;2022-10-01T16:36:20;10.50;;;1.00;;
74074;SDS011;62428;51.412;5.432;2022-10-01T16:38:48;10.20;;;1.25;;
74074;SDS011;62428;51.412;5.432;2022-10-01T16:41:21;14.40;;;1.42;;
74074;SDS011;62428;51.412;5.432;2022-10-01T16:43:49;14.35;;;1.42;;
74074;SDS011;62428;51.412;5.432;2022-10-01T16:46:16;14.43;;;1.50;;
74074;SDS011;62428;51.412;5.432;2022-10-01T16:48:41;11.03;;;1.43;;
74074;SDS011;62428;51.412;5.432;2022-10-01T16:51:07;9.25;;;1.02;;
74074;SDS011;62428;51.412;5.432;2022-10-01T16:53:33;11.30;;;1.30;;
74074;SDS011;62428;51.412;5.432;2022-10-01T16:55:58;11.27;;;1.27;;
74074;SDS011;62428;51.412;5.432;2022-10-01T16:58:24;13.60;;;1.70;;
74074;SDS011;62428;51.412;5.432;2022-10-01T17:00:49;14.20;;;1.40;;
74074;SDS011;62428;51.412;5.432;2022-10-01T17:03:16;14.77;;;1.40;;
74074;SDS011;62428;51.412;5.432;2022-10-01T17:05:43;12.18;;;1.20;;
74074;SDS011;62428;51.412;5.432;2022-10-01T17:08:09;11.63;;;1.58;;
74074;SDS011;62428;51.412;5.432;2022-10-01T17:10:36;11.47;;;1.57;;
74074;SDS011;62428;51.412;5.432;2022-10-01T17:13:05;11.25;;;1.50;;
74074;SDS011;62428;51.412;5.432;2022-10-01T17:15:31;12.40;;;1.75;;
74074;SDS011;62428;51.412;5.432;2022-10-01T17:17:57;12.93;;;1.83;;